Time;durP1;ratioP1;P1;durP2;ratioP2;P2;SDS_P1;SDS_P2;PMS_P1;PMS_P2;Temp;Humidity;BMP_temperature;BMP_pressure;BME280_temperature;BME280_humidity;BME280_pressure;Samples;Min_cycle;Max_cycle;Signal;HPM_P1;HPM_P2
2022/04/15 00:01:09;;;;;;;;;;;;;;;10.22;75.34;102483.94;5057276;28;20376;-34
2022/04/15 00:03:34;;;;;;;;;;;;;;;10.23;75.33;102482.91;5057155;28;19912;-34
2022/04/15 00:06:00;;;;;;;;;;;;;;;10.25;75.10;102486.31;5057657;28;19917;-34
2022/04/15 00:08:25;;;;;;;;;;;;;;;10.24;74.94;102487.31;5056444;28;20413;-34
2022/04/15 00:10:50;;;;;;;;;;;;;;;10.18;75.73;102488.88;5057519;28;20015;-34
2022/04/15 00:13:19;;;;;;;;;;;;;;;10.12;75.50;102483.41;5056991;28;19919;-34
2022/04/15 00:15:45;;;;;;;;;;;;;;;10.03;75.39;102486.19;5056649;28;20011;-34
2022/04/15 00:18:10;;;;;;;;;;;;;;;9.96;75.69;102485.28;5056850;28;20005;-34
2022/04/15 00:20:35;;;;;;;;;;;;;;;9.91;75.94;102486.88;5057623;28;19912;-34
2022/04/15 00:23:01;;;;;;;;;;;;;;;9.86;75.63;102482.03;5057311;28;19913;-34
2022/04/15 00:25:26;;;;;;;;;;;;;;;9.83;75.77;102482.38;5056463;28;19916;-34
2022/04/15 00:27:51;;;;;;;;;;;;;;;9.85;76.39;102484.91;5056688;28;19913;-34
2022/04/15 00:30:17;;;;;;;;;;;;;;;9.87;76.48;102490.97;5057232;28;20276;-34
2022/04/15 00:32:42;;;;;;;;;;;;;;;9.85;76.09;102485.72;5056467;28;20016;-34
2022/04/15 00:35:08;;;;;;;;;;;;;;;9.82;76.66;102494.22;5057087;28;19924;-34
2022/04/15 00:37:33;;;;;;;;;;;;;;;9.78;76.56;102493.75;5056208;28;20261;-34
2022/04/15 00:40:00;;;;;;;;;;;;;;;9.74;76.48;102503.25;5056204;28;19913;-34
2022/04/15 00:42:26;;;;;;;;;;;;;;;9.70;76.59;102504.63;5056460;28;19919;-34
2022/04/15 00:44:54;;;;;;;;;;;;;;;9.67;76.95;102512.28;5056704;28;20257;-34
2022/04/15 00:47:38;;;;;;;;;;;;;;;9.64;76.97;102512.66;5056957;28;19940;-34
2022/04/15 00:50:04;;;;;;;;;;;;;;;9.61;77.19;102508.44;5056105;28;20019;-34
2022/04/15 00:52:33;;;;;;;;;;;;;;;9.60;76.73;102505.94;5055706;28;20008;-34
2022/04/15 00:55:01;;;;;;;;;;;;;;;9.57;77.26;102511.72;5055426;28;20318;-34
2022/04/15 00:57:26;;;;;;;;;;;;;;;9.53;77.36;102514.78;5055690;28;19948;-34
2022/04/15 00:59:53;;;;;;;;;;;;;;;9.47;77.00;102504.72;5056455;28;19967;-34
2022/04/15 01:02:19;;;;;;;;;;;;;;;9.41;77.04;102508.13;5056037;28;19913;-34
2022/04/15 01:04:44;;;;;;;;;;;;;;;9.37;77.01;102506.84;5055982;28;19982;-34
2022/04/15 01:07:10;;;;;;;;;;;;;;;9.34;77.20;102512.59;5056392;28;19962;-33
2022/04/15 01:09:42;;;;;;;;;;;;;;;9.31;77.05;102510.25;5055592;28;20233;-34
2022/04/15 01:12:09;;;;;;;;;;;;;;;9.31;77.25;102512.09;5055776;28;19912;-34
2022/04/15 01:14:35;;;;;;;;;;;;;;;9.30;77.71;102524.75;5055825;28;19919;-33
2022/04/15 01:17:01;;;;;;;;;;;;;;;9.25;77.75;102519.91;5056180;28;19952;-34
2022/04/15 01:19:26;;;;;;;;;;;;;;;9.25;78.12;102519.06;5055443;28;19923;-34
2022/04/15 01:21:54;;;;;;;;;;;;;;;9.24;77.54;102518.22;5055929;28;20396;-34
2022/04/15 01:24:19;;;;;;;;;;;;;;;9.22;77.58;102524.81;5055832;28;19917;-34
2022/04/15 01:26:45;;;;;;;;;;;;;;;9.18;77.95;102518.13;5055527;28;19920;-34
2022/04/15 01:29:10;;;;;;;;;;;;;;;9.15;78.11;102518.47;5055416;28;20276;-34
2022/04/15 01:31:35;;;;;;;;;;;;;;;9.12;77.61;102525.06;5055667;28;19912;-34
2022/04/15 01:34:01;;;;;;;;;;;;;;;9.07;78.26;102527.47;5055616;28;19913;-34
2022/04/15 01:36:26;;;;;;;;;;;;;;;9.05;77.96;102518.72;5055611;28;20022;-34
2022/04/15 01:38:53;;;;;;;;;;;;;;;9.00;77.95;102524.66;5055284;28;19920;-34
2022/04/15 01:41:18;;;;;;;;;;;;;;;8.96;78.37;102528.72;5056054;28;19912;-34
2022/04/15 01:43:43;;;;;;;;;;;;;;;8.93;77.95;102529.09;5055227;28;19918;-34
2022/04/15 01:46:08;;;;;;;;;;;;;;;8.91;78.35;102527.59;5055151;28;19928;-34
2022/04/15 01:48:33;;;;;;;;;;;;;;;8.87;78.46;102526.25;5054644;28;19913;-34
2022/04/15 01:50:59;;;;;;;;;;;;;;;8.83;78.33;102533.03;5055043;28;19923;-34
2022/04/15 01:53:24;;;;;;;;;;;;;;;8.80;78.19;102536.09;5055565;28;19917;-34
2022/04/15 01:55:49;;;;;;;;;;;;;;;8.76;78.99;102538.31;5055655;28;19917;-34
2022/04/15 01:58:14;;;;;;;;;;;;;;;8.74;78.73;102543.06;5055430;28;19916;-34
2022/04/15 02:00:39;;;;;;;;;;;;;;;8.71;78.99;102540.69;5054232;28;20007;-34
2022/04/15 02:03:05;;;;;;;;;;;;;;;8.66;78.97;102545.78;5054633;28;19967;-33
2022/04/15 02:05:30;;;;;;;;;;;;;;;8.65;78.68;102547.66;5055249;28;19952;-34
2022/04/15 02:07:55;;;;;;;;;;;;;;;8.63;79.22;102546.13;5053727;28;19920;-34
2022/04/15 02:10:20;;;;;;;;;;;;;;;8.63;78.92;102548.81;5054876;28;20381;-34
2022/04/15 02:12:46;;;;;;;;;;;;;;;8.60;78.80;102551.91;5054752;28;19956;-34
2022/04/15 02:15:11;;;;;;;;;;;;;;;8.57;79.45;102550.38;5054578;28;19912;-34
2022/04/15 02:17:36;;;;;;;;;;;;;;;8.57;79.29;102554.94;5054513;28;19913;-34
2022/04/15 02:20:02;;;;;;;;;;;;;;;8.56;79.76;102558.66;5054255;28;20026;-34
2022/04/15 02:22:27;;;;;;;;;;;;;;;8.55;79.25;102559.66;5054408;28;20008;-33
2022/04/15 02:24:53;;;;;;;;;;;;;;;8.51;79.03;102565.41;5054760;28;19919;-33
2022/04/15 02:27:18;;;;;;;;;;;;;;;8.49;79.76;102564.75;5054386;28;19913;-34
2022/04/15 02:29:43;;;;;;;;;;;;;;;8.48;80.18;102564.91;5054767;28;19913;-34
2022/04/15 02:32:08;;;;;;;;;;;;;;;8.42;79.69;102563.75;5054721;28;19978;-33
2022/04/15 02:34:34;;;;;;;;;;;;;;;8.38;80.22;102564.28;5054205;28;19927;-34
2022/04/15 02:36:59;;;;;;;;;;;;;;;8.29;79.54;102557.19;5055034;28;19917;-34
2022/04/15 02:39:24;;;;;;;;;;;;;;;8.31;79.90;102574.91;5054322;28;20266;-34
2022/04/15 02:41:51;;;;;;;;;;;;;;;8.27;80.03;102577.09;5053519;28;20415;-34
2022/04/15 02:44:17;;;;;;;;;;;;;;;8.28;79.97;102575.22;5053739;28;20399;-33
2022/04/15 02:46:42;;;;;;;;;;;;;;;8.29;80.20;102570.69;5054222;28;19995;-33
2022/04/15 02:49:08;;;;;;;;;;;;;;;8.31;79.86;102565.97;5054256;28;19913;-33
2022/04/15 02:51:33;;;;;;;;;;;;;;;8.30;79.86;102567.81;5053847;28;19919;-33
2022/04/15 02:53:58;;;;;;;;;;;;;;;8.28;80.01;102575.22;5053863;28;19917;-34
2022/04/15 02:56:24;;;;;;;;;;;;;;;8.26;80.25;102571.88;5053622;28;19916;-34
2022/04/15 02:58:49;;;;;;;;;;;;;;;8.27;80.47;102571.69;5054361;28;19999;-33
2022/04/15 03:01:14;;;;;;;;;;;;;;;8.27;80.54;102576.25;5053758;28;20288;-34
2022/04/15 03:03:39;;;;;;;;;;;;;;;8.26;80.33;102571.88;5054163;28;20004;-33
2022/04/15 03:06:04;;;;;;;;;;;;;;;8.25;80.36;102573.75;5053889;28;19999;-33
2022/04/15 03:08:30;;;;;;;;;;;;;;;8.27;80.45;102576.25;5053501;28;19999;-34
2022/04/15 03:10:55;;;;;;;;;;;;;;;8.27;80.49;102573.56;5053780;28;20413;-34
2022/04/15 03:13:21;;;;;;;;;;;;;;;8.28;80.93;102572.53;5053472;28;19920;-33
2022/04/15 03:15:46;;;;;;;;;;;;;;;8.25;80.73;102576.44;5053291;28;19921;-33
2022/04/15 03:18:11;;;;;;;;;;;;;;;8.25;80.24;102579.13;5053160;28;19920;-33
2022/04/15 03:20:36;;;;;;;;;;;;;;;8.22;80.80;102570.53;5054269;28;19960;-33
2022/04/15 03:23:01;;;;;;;;;;;;;;;8.21;81.14;102576.94;5053354;28;19913;-33
2022/04/15 03:25:27;;;;;;;;;;;;;;;8.23;80.92;102580.31;5053085;28;20344;-33
2022/04/15 03:27:53;;;;;;;;;;;;;;;8.27;81.64;102587.03;5053017;28;19912;-33
2022/04/15 03:30:18;;;;;;;;;;;;;;;8.29;83.53;102585.00;5053384;28;19913;-33
2022/04/15 03:32:44;;;;;;;;;;;;;;;8.29;84.65;102586.84;5052953;28;19955;-33
2022/04/15 03:35:09;;;;;;;;;;;;;;;8.24;83.19;102580.13;5053378;28;19963;-33
2022/04/15 03:37:34;;;;;;;;;;;;;;;8.22;83.06;102584.00;5053808;28;19991;-33
2022/04/15 03:39:59;;;;;;;;;;;;;;;8.27;82.32;102579.78;5052167;28;20003;-33
2022/04/15 03:42:25;;;;;;;;;;;;;;;8.32;82.73;102587.34;5053746;28;19920;-33
2022/04/15 03:44:50;;;;;;;;;;;;;;;8.33;84.18;102597.13;5053282;28;19912;-33
2022/04/15 03:47:16;;;;;;;;;;;;;;;8.31;85.71;102590.22;5052861;28;19913;-33
2022/04/15 03:49:41;;;;;;;;;;;;;;;8.26;86.11;102591.59;5052842;28;19912;-33
2022/04/15 03:52:06;;;;;;;;;;;;;;;8.21;85.50;102590.44;5053020;28;19913;-33
2022/04/15 03:54:32;;;;;;;;;;;;;;;8.17;86.66;102600.69;5052854;28;19913;-34
2022/04/15 03:56:57;;;;;;;;;;;;;;;8.13;87.70;102599.34;5053421;28;19952;-34
2022/04/15 03:59:22;;;;;;;;;;;;;;;8.07;88.78;102607.31;5053125;28;19919;-33
2022/04/15 04:01:47;;;;;;;;;;;;;;;7.92;92.09;102617.94;5052921;28;19947;-34
2022/04/15 04:04:13;;;;;;;;;;;;;;;7.93;88.95;102612.38;5053033;28;19956;-34
2022/04/15 04:06:39;;;;;;;;;;;;;;;7.88;90.51;102612.03;5052977;28;20339;-33
2022/04/15 04:09:04;;;;;;;;;;;;;;;7.64;94.00;102620.97;5052908;28;19955;-33
2022/04/15 04:11:29;;;;;;;;;;;;;;;7.56;93.45;102618.25;5053382;28;19948;-34
2022/04/15 04:13:54;;;;;;;;;;;;;;;7.52;93.74;102616.94;5052571;28;19958;-34
2022/04/15 04:16:20;;;;;;;;;;;;;;;7.42;94.37;102622.47;5052914;28;19912;-34
2022/04/15 04:18:45;;;;;;;;;;;;;;;7.44;93.26;102623.16;5053166;28;19919;-34
2022/04/15 04:21:11;;;;;;;;;;;;;;;7.44;93.64;102633.91;5052836;28;19919;-33
2022/04/15 04:23:36;;;;;;;;;;;;;;;7.39;96.74;102627.34;5053051;28;19956;-34
2022/04/15 04:26:02;;;;;;;;;;;;;;;7.40;93.53;102627.19;5053563;28;19913;-33
2022/04/15 04:28:28;;;;;;;;;;;;;;;7.46;95.18;102639.13;5052984;28;19912;-33
2022/04/15 04:30:53;;;;;;;;;;;;;;;7.51;92.85;102644.00;5054416;28;19912;-33
2022/04/15 04:33:19;;;;;;;;;;;;;;;7.53;92.07;102633.94;5056544;28;19912;-34
2022/04/15 04:35:44;;;;;;;;;;;;;;;7.43;95.00;102640.31;5056520;28;19912;-34
2022/04/15 04:38:09;;;;;;;;;;;;;;;7.47;94.81;102635.44;5056360;28;20353;-34
2022/04/15 04:40:35;;;;;;;;;;;;;;;7.52;95.30;102640.31;5057001;28;19913;-34
2022/04/15 04:43:00;;;;;;;;;;;;;;;7.48;98.22;102643.34;5056284;28;19920;-33
2022/04/15 04:45:25;;;;;;;;;;;;;;;7.53;94.88;102644.69;5057061;28;19952;-34
2022/04/15 04:47:52;;;;;;;;;;;;;;;7.58;98.69;102642.34;5055890;28;19912;-34
2022/04/15 04:50:17;;;;;;;;;;;;;;;7.65;95.80;102646.03;5056961;28;19920;-34
2022/04/15 04:52:43;;;;;;;;;;;;;;;7.68;94.89;102648.41;5056111;28;19913;-33
2022/04/15 04:55:09;;;;;;;;;;;;;;;7.77;94.92;102649.25;5055107;28;19947;-34
2022/04/15 04:57:34;;;;;;;;;;;;;;;7.76;97.29;102656.50;5056517;28;19968;-34
2022/04/15 04:59:59;;;;;;;;;;;;;;;7.73;98.56;102662.22;5056591;28;20229;-34
2022/04/15 05:02:25;;;;;;;;;;;;;;;7.73;95.78;102660.34;5055727;28;19913;-33
2022/04/15 05:04:50;;;;;;;;;;;;;;;7.79;96.05;102664.22;5056208;28;20015;-34
2022/04/15 05:07:15;;;;;;;;;;;;;;;7.83;96.50;102668.25;5056189;28;19913;-34
2022/04/15 05:09:42;;;;;;;;;;;;;;;7.82;96.83;102669.28;5055483;28;20313;-33
2022/04/15 05:12:08;;;;;;;;;;;;;;;7.86;96.26;102677.88;5055460;28;19912;-33
2022/04/15 05:14:34;;;;;;;;;;;;;;;7.90;96.22;102676.50;5055962;28;19942;-33
2022/04/15 05:16:59;;;;;;;;;;;;;;;7.88;98.49;102675.84;5054873;28;19917;-33
2022/04/15 05:19:24;;;;;;;;;;;;;;;7.78;100.00;102680.56;5055456;28;19916;-33
2022/04/15 05:21:49;;;;;;;;;;;;;;;7.75;99.07;102685.25;5056113;28;19919;-33
2022/04/15 05:24:14;;;;;;;;;;;;;;;7.79;97.65;102675.00;5056265;28;19920;-33
2022/04/15 05:26:40;;;;;;;;;;;;;;;7.88;97.34;102690.16;5055572;28;19992;-33
2022/04/15 05:29:05;;;;;;;;;;;;;;;7.93;97.91;102685.09;5055417;28;19913;-33
2022/04/15 05:31:30;;;;;;;;;;;;;;;7.96;97.59;102695.53;5055708;28;19912;-33
2022/04/15 05:33:55;;;;;;;;;;;;;;;8.01;96.63;102697.75;5055337;28;19912;-33
2022/04/15 05:36:21;;;;;;;;;;;;;;;8.06;95.24;102700.75;5055345;28;19920;-33
2022/04/15 05:38:46;;;;;;;;;;;;;;;8.07;97.37;102705.13;5054892;28;20329;-34
2022/04/15 05:41:11;;;;;;;;;;;;;;;8.12;95.60;102704.63;5055459;28;20011;-33
2022/04/15 05:43:37;;;;;;;;;;;;;;;8.19;94.85;102713.72;5054846;28;19919;-33
2022/04/15 05:46:02;;;;;;;;;;;;;;;8.09;98.95;102703.09;5055574;28;19919;-33
2022/04/15 05:48:28;;;;;;;;;;;;;;;8.09;97.98;102721.97;5055881;28;19912;-34
2022/04/15 05:50:53;;;;;;;;;;;;;;;8.14;96.93;102718.75;5054984;28;20340;-33
2022/04/15 05:53:18;;;;;;;;;;;;;;;8.18;96.44;102725.50;5054906;28;20003;-33
2022/04/15 05:55:43;;;;;;;;;;;;;;;8.20;96.77;102729.72;5055624;28;20273;-33
2022/04/15 05:58:10;;;;;;;;;;;;;;;8.22;97.43;102732.25;5055110;28;19925;-33
2022/04/15 06:00:35;;;;;;;;;;;;;;;8.22;96.55;102735.78;5054763;28;19917;-34
2022/04/15 06:03:01;;;;;;;;;;;;;;;8.29;96.16;102735.94;5055423;28;20400;-33
2022/04/15 06:05:27;;;;;;;;;;;;;;;8.32;96.44;102732.91;5055477;28;19912;-34
2022/04/15 06:07:52;;;;;;;;;;;;;;;8.26;98.55;102731.75;5054579;28;19913;-33
2022/04/15 06:10:18;;;;;;;;;;;;;;;8.23;97.74;102733.91;5054388;28;19912;-33
2022/04/15 06:13:02;;;;;;;;;;;;;;;8.21;98.43;102746.75;5054254;28;19920;-33
2022/04/15 06:15:34;;;;;;;;;;;;;;;8.18;98.98;102753.28;5055032;28;20352;-33
2022/04/15 06:18:03;;;;;;;;;;;;;;;8.20;100.00;102753.16;5054444;28;19920;-34
2022/04/15 06:20:28;;;;;;;;;;;;;;;8.20;98.31;102751.28;5054514;28;19924;-34
2022/04/15 06:22:54;;;;;;;;;;;;;;;8.22;100.00;102753.81;5054894;28;19912;-33
2022/04/15 06:25:19;;;;;;;;;;;;;;;8.19;99.79;102759.53;5054158;28;19916;-34
2022/04/15 06:27:45;;;;;;;;;;;;;;;8.27;98.87;102756.84;5054543;28;19932;-34
2022/04/15 06:30:10;;;;;;;;;;;;;;;8.33;100.00;102756.16;5055242;28;19912;-33
2022/04/15 06:32:35;;;;;;;;;;;;;;;8.38;99.31;102766.47;5053814;28;19916;-33
2022/04/15 06:35:01;;;;;;;;;;;;;;;8.38;100.00;102763.75;5054110;28;20011;-33
2022/04/15 06:37:26;;;;;;;;;;;;;;;8.40;99.33;102768.00;5054310;28;20018;-33
2022/04/15 06:39:51;;;;;;;;;;;;;;;8.49;98.14;102769.66;5054554;28;19920;-33
2022/04/15 06:42:23;;;;;;;;;;;;;;;8.58;97.78;102773.16;5052658;28;19935;-33
2022/04/15 06:44:49;;;;;;;;;;;;;;;8.67;97.25;102779.41;5054982;28;20416;-33
2022/04/15 06:47:15;;;;;;;;;;;;;;;8.74;97.11;102770.47;5053954;28;19916;-33
2022/04/15 06:49:40;;;;;;;;;;;;;;;8.69;98.39;102783.63;5054087;28;19958;-33
2022/04/15 06:52:05;;;;;;;;;;;;;;;8.67;97.50;102777.53;5054128;28;19913;-33
2022/04/15 06:54:31;;;;;;;;;;;;;;;8.71;98.91;102784.28;5053262;28;20337;-33
2022/04/15 06:56:56;;;;;;;;;;;;;;;8.69;99.23;102780.09;5054063;28;20051;-34
2022/04/15 06:59:21;;;;;;;;;;;;;;;8.68;98.57;102781.06;5054295;28;19913;-34
2022/04/15 07:01:47;;;;;;;;;;;;;;;8.70;98.92;102793.41;5054189;28;20305;-34
2022/04/15 07:04:13;;;;;;;;;;;;;;;8.69;97.96;102794.41;5053628;28;19912;-33
2022/04/15 07:06:38;;;;;;;;;;;;;;;8.73;98.20;102792.19;5053623;28;20016;-33
2022/04/15 07:09:03;;;;;;;;;;;;;;;8.75;97.10;102792.88;5054119;28;19913;-33
2022/04/15 07:11:28;;;;;;;;;;;;;;;8.83;96.37;102790.16;5054075;28;20333;-33
2022/04/15 07:13:53;;;;;;;;;;;;;;;8.91;96.50;102795.53;5053382;28;19912;-34
2022/04/15 07:16:19;;;;;;;;;;;;;;;8.93;97.37;102795.34;5053996;28;20065;-34
2022/04/15 07:18:44;;;;;;;;;;;;;;;8.93;96.73;102798.91;5053546;28;19936;-33
2022/04/15 07:21:11;;;;;;;;;;;;;;;8.93;96.80;102803.44;5053527;28;19935;-33
2022/04/15 07:23:36;;;;;;;;;;;;;;;8.95;96.72;102796.03;5053022;28;19916;-34
2022/04/15 07:26:01;;;;;;;;;;;;;;;8.91;97.05;102802.78;5053598;28;19913;-34
2022/04/15 07:28:27;;;;;;;;;;;;;;;8.91;97.34;102803.63;5053462;28;19936;-34
2022/04/15 07:30:52;;;;;;;;;;;;;;;8.97;96.39;102794.00;5053612;28;19913;-34
2022/04/15 07:33:17;;;;;;;;;;;;;;;9.02;96.21;102810.50;5052923;28;19913;-33
2022/04/15 07:35:42;;;;;;;;;;;;;;;8.98;95.85;102801.94;5053064;28;19912;-34
2022/04/15 07:38:08;;;;;;;;;;;;;;;8.89;96.73;102805.66;5052665;28;19912;-34
2022/04/15 07:40:33;;;;;;;;;;;;;;;8.90;96.70;102812.75;5053816;28;19912;-34
2022/04/15 07:42:58;;;;;;;;;;;;;;;8.85;97.02;102814.28;5052888;28;19956;-34
2022/04/15 07:45:24;;;;;;;;;;;;;;;8.94;96.37;102806.00;5052728;28;19925;-34
2022/04/15 07:47:49;;;;;;;;;;;;;;;9.02;96.22;102805.94;5052593;28;19962;-34
2022/04/15 07:50:14;;;;;;;;;;;;;;;9.11;94.72;102811.34;5053238;28;20375;-34
2022/04/15 07:52:39;;;;;;;;;;;;;;;9.20;94.48;102813.84;5052978;28;19966;-34
2022/04/15 07:55:05;;;;;;;;;;;;;;;9.27;93.43;102825.66;5052630;28;19967;-33
2022/04/15 07:57:30;;;;;;;;;;;;;;;9.30;92.10;102819.03;5052693;28;20000;-34
2022/04/15 07:59:56;;;;;;;;;;;;;;;9.31;92.01;102818.00;5053119;28;19913;-33
2022/04/15 08:02:21;;;;;;;;;;;;;;;9.43;92.27;102819.31;5052615;28;19985;-34
2022/04/15 08:04:46;;;;;;;;;;;;;;;9.54;91.93;102818.09;5052894;28;20436;-34
2022/04/15 08:07:12;;;;;;;;;;;;;;;9.74;92.19;102824.75;5056477;28;19916;-34
2022/04/15 08:09:39;;;;;;;;;;;;;;;9.80;89.28;102815.06;5056848;28;19913;-34
2022/04/15 08:12:04;;;;;;;;;;;;;;;9.85;89.20;102823.50;5056755;28;19919;-34
2022/04/15 08:14:30;;;;;;;;;;;;;;;9.89;87.87;102822.13;5056698;28;19913;-33
2022/04/15 08:16:55;;;;;;;;;;;;;;;9.92;86.77;102815.53;5056921;28;19912;-34
2022/04/15 08:19:21;;;;;;;;;;;;;;;9.96;87.19;102819.56;5057141;28;20272;-34
2022/04/15 08:21:46;;;;;;;;;;;;;;;10.00;87.65;102804.66;5056924;28;19913;-33
2022/04/15 08:24:11;;;;;;;;;;;;;;;10.19;87.69;102825.78;5056837;28;19986;-34
2022/04/15 08:26:36;;;;;;;;;;;;;;;10.34;86.98;102817.78;5056838;28;19917;-33
2022/04/15 08:29:01;;;;;;;;;;;;;;;10.47;85.35;102818.00;5056546;28;19913;-34
2022/04/15 08:31:27;;;;;;;;;;;;;;;10.48;83.97;102808.03;5057076;28;19912;-33
2022/04/15 08:33:52;;;;;;;;;;;;;;;10.50;83.67;102814.94;5056096;28;19912;-34
2022/04/15 08:36:17;;;;;;;;;;;;;;;10.65;83.38;102814.16;5056351;28;20334;-34
2022/04/15 08:38:42;;;;;;;;;;;;;;;10.78;83.06;102819.75;5056291;28;19936;-34
2022/04/15 08:41:11;;;;;;;;;;;;;;;10.80;83.29;102817.72;5055998;28;19920;-34
2022/04/15 08:43:36;;;;;;;;;;;;;;;10.81;82.54;102819.38;5055922;28;20383;-34
2022/04/15 08:46:03;;;;;;;;;;;;;;;10.81;82.08;102824.81;5055905;28;20007;-33
2022/04/15 08:48:28;;;;;;;;;;;;;;;10.91;83.33;102825.38;5056816;28;19998;-34
2022/04/15 08:50:54;;;;;;;;;;;;;;;11.04;80.51;102833.72;5056290;28;19913;-33
2022/04/15 08:53:22;;;;;;;;;;;;;;;11.18;76.99;102828.50;5056027;28;20086;-34
2022/04/15 08:55:47;;;;;;;;;;;;;;;11.37;79.85;102822.50;5055997;28;19913;-34
2022/04/15 08:58:12;;;;;;;;;;;;;;;11.64;79.92;102826.38;5056164;28;19923;-34
2022/04/15 09:00:38;;;;;;;;;;;;;;;11.84;78.68;102822.06;5055980;28;19927;-34
2022/04/15 09:03:04;;;;;;;;;;;;;;;12.04;76.00;102833.13;5055896;28;19954;-34
2022/04/15 09:05:29;;;;;;;;;;;;;;;12.01;72.88;102833.53;5056403;28;20351;-34
2022/04/15 09:08:04;;;;;;;;;;;;;;;12.28;74.96;102840.03;5055767;28;19919;-34
2022/04/15 09:10:30;;;;;;;;;;;;;;;12.30;72.89;102842.59;5056257;28;20403;-34
2022/04/15 09:12:55;;;;;;;;;;;;;;;12.20;71.30;102842.91;5055861;28;20004;-34
2022/04/15 09:15:20;;;;;;;;;;;;;;;12.27;72.04;102840.25;5055324;28;20370;-34
2022/04/15 09:17:49;;;;;;;;;;;;;;;12.45;73.46;102834.38;5055360;28;19958;-34
2022/04/15 09:20:14;;;;;;;;;;;;;;;12.49;72.99;102841.06;5055617;28;19923;-34
2022/04/15 09:22:40;;;;;;;;;;;;;;;12.32;71.67;102840.50;5055744;28;19913;-34
2022/04/15 09:25:06;;;;;;;;;;;;;;;12.31;71.65;102844.25;5055522;28;19913;-34
2022/04/15 09:27:32;;;;;;;;;;;;;;;12.40;72.62;102843.09;5055461;28;19939;-34
2022/04/15 09:29:57;;;;;;;;;;;;;;;12.43;71.77;102848.09;5054723;28;19916;-34
2022/04/15 09:32:24;;;;;;;;;;;;;;;12.42;70.42;102846.44;5055403;28;20364;-34
2022/04/15 09:34:52;;;;;;;;;;;;;;;12.51;69.49;102844.44;5054095;28;19920;-34
2022/04/15 09:37:18;;;;;;;;;;;;;;;12.40;69.38;102848.53;5055699;28;19919;-34
2022/04/15 09:40:01;;;;;;;;;;;;;;;12.60;71.54;102848.69;5055275;28;20373;-34
2022/04/15 09:42:26;;;;;;;;;;;;;;;12.84;71.55;102847.44;5056262;28;20329;-34
2022/04/15 09:44:52;;;;;;;;;;;;;;;13.10;71.78;102853.03;5055127;28;19923;-35
2022/04/15 09:47:17;;;;;;;;;;;;;;;13.25;69.70;102855.66;5055275;28;19920;-35
2022/04/15 09:49:45;;;;;;;;;;;;;;;13.14;68.53;102858.91;5055107;28;19913;-34
2022/04/15 09:52:11;;;;;;;;;;;;;;;13.03;69.88;102859.44;5055717;28;19916;-34
2022/04/15 09:54:36;;;;;;;;;;;;;;;12.97;68.87;102860.25;5055270;28;20258;-33
2022/04/15 09:57:03;;;;;;;;;;;;;;;12.87;69.49;102860.59;5055508;28;19968;-33
2022/04/15 09:59:28;;;;;;;;;;;;;;;12.66;68.30;102857.94;5055585;28;20238;-33
2022/04/15 10:01:58;;;;;;;;;;;;;;;12.46;68.55;102853.16;5054937;28;19919;-33
2022/04/15 10:04:27;;;;;;;;;;;;;;;12.45;69.78;102856.09;5055114;28;19964;-33
2022/04/15 10:06:52;;;;;;;;;;;;;;;12.29;69.52;102858.00;5055278;28;19913;-33
2022/04/15 10:09:18;;;;;;;;;;;;;;;12.32;69.45;102862.19;5054647;28;19920;-33
2022/04/15 10:11:45;;;;;;;;;;;;;;;12.37;70.46;102860.59;5055013;28;19919;-33
2022/04/15 10:14:11;;;;;;;;;;;;;;;12.39;69.79;102860.38;5054638;28;19916;-33
2022/04/15 10:16:37;;;;;;;;;;;;;;;12.46;70.35;102857.75;5054947;28;19952;-34
2022/04/15 10:19:03;;;;;;;;;;;;;;;12.40;68.14;102855.81;5054488;28;19912;-34
2022/04/15 10:21:31;;;;;;;;;;;;;;;12.38;68.14;102862.25;5055397;28;19917;-34
2022/04/15 10:23:57;;;;;;;;;;;;;;;12.61;70.31;102853.91;5054700;28;20319;-34
2022/04/15 10:26:23;;;;;;;;;;;;;;;13.02;70.50;102853.19;5054283;28;19919;-34
2022/04/15 10:28:48;;;;;;;;;;;;;;;13.25;69.30;102857.53;5053165;28;19995;-34
2022/04/15 10:31:16;;;;;;;;;;;;;;;13.34;66.85;102854.47;5054362;28;19962;-34
2022/04/15 10:33:42;;;;;;;;;;;;;;;13.50;67.61;102855.16;5053759;28;19919;-34
2022/04/15 10:36:10;;;;;;;;;;;;;;;13.56;64.70;102857.91;5053917;28;19913;-33
2022/04/15 10:38:35;;;;;;;;;;;;;;;13.61;62.97;102851.88;5054275;28;19936;-34
2022/04/15 10:41:12;;;;;;;;;;;;;;;13.71;65.60;102846.06;5054397;28;19912;-35
2022/04/15 10:43:37;;;;;;;;;;;;;;;14.00;64.58;102839.47;5054509;28;20226;-35
2022/04/15 10:46:25;;;;;;;;;;;;;;;14.27;64.77;102846.66;5054064;28;19920;-35
2022/04/15 10:48:51;;;;;;;;;;;;;;;14.30;62.00;102840.78;5053963;28;20045;-34
2022/04/15 10:51:24;;;;;;;;;;;;;;;14.05;63.33;102843.22;5054233;28;19920;-34
2022/04/15 10:53:49;;;;;;;;;;;;;;;13.92;63.12;102845.94;5053901;28;19967;-34
2022/04/15 10:56:15;;;;;;;;;;;;;;;14.08;64.35;102842.84;5054107;28;19978;-34
2022/04/15 11:01:51;;;;;;;;;;;;;;;14.46;61.83;102845.00;5054188;28;20315;-33
2022/04/15 11:04:21;;;;;;;;;;;;;;;14.46;61.38;102845.00;5053372;28;19913;-33
2022/04/15 11:06:46;;;;;;;;;;;;;;;14.32;60.42;102843.31;5053728;28;19913;-33
2022/04/15 11:09:15;;;;;;;;;;;;;;;14.11;60.54;102836.16;5053243;28;19935;-33
2022/04/15 11:11:42;;;;;;;;;;;;;;;14.01;61.81;102836.56;5053291;28;19967;-34
2022/04/15 11:14:13;;;;;;;;;;;;;;;14.13;62.98;102840.34;5053589;28;19920;-34
2022/04/15 11:16:40;;;;;;;;;;;;;;;13.90;61.33;102839.84;5053299;28;19920;-33
2022/04/15 11:19:07;;;;;;;;;;;;;;;14.19;64.23;102830.50;5053290;28;19912;-34
2022/04/15 11:21:35;;;;;;;;;;;;;;;14.47;61.77;102841.22;5053749;28;19920;-34
2022/04/15 11:24:01;;;;;;;;;;;;;;;14.48;59.95;102833.91;5053488;28;19944;-34
2022/04/15 11:26:27;;;;;;;;;;;;;;;14.47;62.37;102835.78;5052979;28;20325;-34
2022/04/15 11:28:54;;;;;;;;;;;;;;;14.40;61.56;102837.66;5053854;28;19913;-34
2022/04/15 11:31:28;;;;;;;;;;;;;;;14.51;62.22;102837.06;5053557;28;20354;-34
2022/04/15 11:33:55;;;;;;;;;;;;;;;14.85;62.26;102837.91;5053312;28;20012;-34
2022/04/15 11:36:21;;;;;;;;;;;;;;;14.98;59.18;102831.56;5053274;28;19912;-34
2022/04/15 11:38:47;;;;;;;;;;;;;;;15.23;61.10;102832.59;5053679;28;19920;-34
2022/04/15 11:41:19;;;;;;;;;;;;;;;15.31;59.77;102826.91;5053627;28;19958;-34
2022/04/15 11:43:47;;;;;;;;;;;;;;;15.17;58.41;102830.69;5053200;28;19913;-34
2022/04/15 11:46:13;;;;;;;;;;;;;;;15.07;59.51;102825.69;5053165;28;20365;-34
2022/04/15 11:48:38;;;;;;;;;;;;;;;15.02;60.38;102828.22;5053190;28;20026;-34
2022/04/15 11:51:03;;;;;;;;;;;;;;;15.01;59.45;102820.28;5053117;28;19913;-34
2022/04/15 11:53:28;;;;;;;;;;;;;;;14.95;58.92;102830.13;5052722;28;19916;-34
2022/04/15 11:55:58;;;;;;;;;;;;;;;15.08;59.90;102827.41;5053763;28;20361;-34
2022/04/15 11:58:24;;;;;;;;;;;;;;;15.29;60.07;102834.47;5053903;28;20002;-34
2022/04/15 12:00:51;;;;;;;;;;;;;;;15.42;58.80;102828.09;5053460;28;20277;-34
2022/04/15 12:03:16;;;;;;;;;;;;;;;15.16;58.68;102835.31;5053182;28;20023;-34
2022/04/15 12:05:42;;;;;;;;;;;;;;;15.05;58.70;102838.69;5053521;28;19971;-34
2022/04/15 12:08:08;;;;;;;;;;;;;;;15.15;58.69;102838.25;5053108;28;20327;-34
2022/04/15 12:10:36;;;;;;;;;;;;;;;15.40;59.33;102830.22;5053127;28;19912;-34
2022/04/15 12:13:02;;;;;;;;;;;;;;;15.55;58.63;102836.25;5052699;28;19913;-34
2022/04/15 12:15:28;;;;;;;;;;;;;;;15.67;57.87;102837.28;5053929;28;19962;-34
2022/04/15 12:17:53;;;;;;;;;;;;;;;15.51;58.15;102832.28;5052695;28;20041;-34
2022/04/15 12:20:19;;;;;;;;;;;;;;;15.67;57.31;102836.47;5053067;28;20358;-34
2022/04/15 12:22:44;;;;;;;;;;;;;;;15.72;58.06;102830.34;5052490;28;20291;-35
2022/04/15 12:25:13;;;;;;;;;;;;;;;15.81;56.30;102832.63;5053029;28;19967;-34
2022/04/15 12:27:38;;;;;;;;;;;;;;;15.82;55.35;102833.44;5052678;28;19920;-34
2022/04/15 12:30:03;;;;;;;;;;;;;;;16.02;57.01;102828.72;5053005;28;20277;-34
2022/04/15 12:32:33;;;;;;;;;;;;;;;16.00;55.29;102833.53;5052667;28;19920;-34
2022/04/15 12:34:59;;;;;;;;;;;;;;;16.15;56.82;102834.09;5053772;28;19916;-34
2022/04/15 12:37:56;;;;;;;;;;;;;;;15.91;54.85;102838.44;5052452;28;20457;-34
2022/04/15 12:40:21;;;;;;;;;;;;;;;16.07;56.85;102837.06;5030899;28;19916;-34